Shenandoah, IA (51601)

12:44 PM CST on February 19, 2017 (GMT -0600)
Cottage and Maple | | Change Station

Elev 1016 ft 40.76 °N, 95.37 °W | Updated 6 seconds ago

Clear
Clear
64.8 °F
Feels Like 64.8 °F
N
4.0
Wind Variable Wind from SSW
Gusts 18.0 mph

Today
High -- | Low -- °F
--% Chance of Precip.
Yesterday
High -- | Low -- °F
Precip. -- in
Pressure 29.88 in
Visibility 10.0 miles
Clouds Clear
Dew Point 52 °F
Humidity 64%
Rainfall 0.00 in
Snow Depth Not available.
7:09 AM 6:01 PM
Last Quarter, 41% visible
METAR KSDA 191835Z AUTO 16014G21KT 10SM CLR 19/10 A2988 RMK AO2
Pressure 29.88 in
Visibility 10.0 miles
Clouds Clear
Dew Point 52 °F
Humidity 64%
Rainfall 0.00 in
Snow Depth Not available.
7:09 AM 6:01 PM
Last Quarter, 41% visible
METAR KSDA 191835Z AUTO 16014G21KT 10SM CLR 19/10 A2988 RMK AO2

Get Your Daily Forecast Email!

Thanks for signing up!

Be on the lookout for a verification email in your inbox.

You'll start receiving the daily forecast at 8 AM.

×

10-Day Weather Forecast

Almanac

Astronomy

Feb. 19, 2017 Rise Set
Actual Time
Civil Twilight
Nautical Twilight
Astronomical Twilight
Moon
Length of Visible Light
Length of Day
Tomorrow will be .
, % of the Moon is Illuminated

Today's Extremes

State Highs State Lows

Community

WunderPhotos

Upload Photos

1,962,540 photos uploaded!

WunderBlog® & News

Nearby

Air Quality

  Air Quality AQ Index Pollutant
Not available.

Snow Depth

Station Depth Elevation

Earthquake Activity

City Distance Mag. Time & Date
Minimum magnitude displayed is 2.5.

Coastal Water Temperatures

Place Temperature

Stations

Nearby Weather Stations

Station Location Temp. Windchill Dew Point Humidity Wind Precip. Elev Updated Type
                   

Watches & Warnings

There are currently no watches in effect.